Terminal Aerodrome Forecast
Issued by NWS

Home | Current Version | Previous Version | Text Only | Print | Product List | Glossary On
Versions: 1 2 3 4 5 6 7 8 9 10 11 12 13 14
006
FTUS45 KRIW 082327
TAFCPR
TAF
KCPR 082327Z 0900/0924 22012KT P6SM SCT250
     FM090600 23014KT P6SM SCT250
     FM091700 20017G22KT P6SM FEW250
     FM092200 21015KT P6SM FEW250=

USA.gov is the U.S. government's official web portal to all federal, state and local government web resources and services.